Cameron, Texas
Current Conditions -  °F | °C
As of 8:15 PM on Saturday 22 Nov 2014 (Local Time) from KT35 Reporting Station
Thunderstorm Thunderstorm  
Wind Chill: 61°   Ceiling: 4400
Heat Index: 61°   Visibility: 10mi
Dew Point: 60°   Wind: 7mph
Humidity: 97%   Direction: 60°ENE
Pressure: 29.77"   Gusts: NA
Location:  30.85°N, 96.98°W
Report Text: KT35 230215Z AUTO 06006KT 10SM -TSRA SCT030 BKN044 OVC050 16/16 A2977 RMK AO2 LTG DSNT ALQS P0006 T01600155
Loading
Personal Weather Stations






























Interactive Weather Map New forecast layout! Learn more

10-Day Weather Forecast

Advertisements
Track Severe Weather on mobile